sensor_id;sensor_type;location;lat;lon;timestamp;pressure;altitude;pressure_sealevel;temperature;humidity
64189;BME280;50493;50.970;10.082;2023-08-24T00:01:56;99556.47;;;22.57;46.84
64189;BME280;50493;50.970;10.082;2023-08-24T00:04:21;99554.13;;;22.52;47.06
64189;BME280;50493;50.970;10.082;2023-08-24T00:06:49;99545.50;;;22.49;47.46
64189;BME280;50493;50.970;10.082;2023-08-24T00:09:14;99542.41;;;22.42;46.82
64189;BME280;50493;50.970;10.082;2023-08-24T00:11:40;99538.25;;;22.38;47.20
64189;BME280;50493;50.970;10.082;2023-08-24T00:14:06;99540.06;;;22.37;47.56
64189;BME280;50493;50.970;10.082;2023-08-24T00:16:32;99545.50;;;22.36;47.06
64189;BME280;50493;50.970;10.082;2023-08-24T00:18:57;99553.03;;;22.29;47.26
64189;BME280;50493;50.970;10.082;2023-08-24T00:21:22;99555.97;;;22.25;47.43
64189;BME280;50493;50.970;10.082;2023-08-24T00:23:50;99556.19;;;22.21;47.71
64189;BME280;50493;50.970;10.082;2023-08-24T00:26:16;99552.25;;;22.14;47.35
64189;BME280;50493;50.970;10.082;2023-08-24T00:28:45;99555.09;;;22.11;47.62
64189;BME280;50493;50.970;10.082;2023-08-24T00:31:11;99543.81;;;22.08;47.27
64189;BME280;50493;50.970;10.082;2023-08-24T00:33:37;99534.25;;;22.05;47.88
64189;BME280;50493;50.970;10.082;2023-08-24T00:36:03;99533.13;;;21.95;47.51
64189;BME280;50493;50.970;10.082;2023-08-24T00:38:29;99533.56;;;21.88;47.62
64189;BME280;50493;50.970;10.082;2023-08-24T00:40:56;99534.72;;;21.84;48.11
64189;BME280;50493;50.970;10.082;2023-08-24T00:43:22;99536.84;;;21.79;47.73
64189;BME280;50493;50.970;10.082;2023-08-24T00:45:49;99526.41;;;21.76;47.96
64189;BME280;50493;50.970;10.082;2023-08-24T00:48:15;99532.31;;;21.67;48.19
64189;BME280;50493;50.970;10.082;2023-08-24T00:50:40;99527.53;;;21.72;47.83
64189;BME280;50493;50.970;10.082;2023-08-24T00:53:06;99523.69;;;21.63;47.99
64189;BME280;50493;50.970;10.082;2023-08-24T00:55:31;99524.69;;;21.61;48.01
64189;BME280;50493;50.970;10.082;2023-08-24T00:57:58;99513.88;;;21.64;48.05
64189;BME280;50493;50.970;10.082;2023-08-24T01:00:24;99520.94;;;21.50;48.10
64189;BME280;50493;50.970;10.082;2023-08-24T01:02:50;99522.53;;;21.53;48.29
64189;BME280;50493;50.970;10.082;2023-08-24T01:05:15;99512.88;;;21.52;48.19
64189;BME280;50493;50.970;10.082;2023-08-24T01:07:41;99512.94;;;21.50;47.99
64189;BME280;50493;50.970;10.082;2023-08-24T01:10:08;99514.63;;;21.38;48.17
64189;BME280;50493;50.970;10.082;2023-08-24T01:12:44;99513.13;;;21.34;48.39
64189;BME280;50493;50.970;10.082;2023-08-24T01:15:17;99522.25;;;21.30;48.33
64189;BME280;50493;50.970;10.082;2023-08-24T01:17:45;99524.81;;;21.32;48.11
64189;BME280;50493;50.970;10.082;2023-08-24T01:20:14;99523.28;;;21.28;48.31
64189;BME280;50493;50.970;10.082;2023-08-24T01:22:45;99530.50;;;21.26;48.34
64189;BME280;50493;50.970;10.082;2023-08-24T01:25:16;99517.41;;;21.23;48.08
64189;BME280;50493;50.970;10.082;2023-08-24T01:27:43;99518.34;;;21.21;48.23
64189;BME280;50493;50.970;10.082;2023-08-24T01:30:10;99521.50;;;21.14;48.27
64189;BME280;50493;50.970;10.082;2023-08-24T01:32:36;99515.72;;;21.07;48.43
64189;BME280;50493;50.970;10.082;2023-08-24T01:35:03;99526.44;;;21.05;48.33
64189;BME280;50493;50.970;10.082;2023-08-24T01:37:30;99530.16;;;21.03;48.48
64189;BME280;50493;50.970;10.082;2023-08-24T01:40:00;99527.50;;;21.03;48.25
64189;BME280;50493;50.970;10.082;2023-08-24T01:42:45;99526.75;;;21.01;48.31
64189;BME280;50493;50.970;10.082;2023-08-24T01:45:15;99522.69;;;20.95;48.50
64189;BME280;50493;50.970;10.082;2023-08-24T01:47:42;99528.44;;;20.87;48.57
64189;BME280;50493;50.970;10.082;2023-08-24T01:50:08;99527.66;;;20.85;48.55
64189;BME280;50493;50.970;10.082;2023-08-24T01:52:34;99524.25;;;20.83;48.48
64189;BME280;50493;50.970;10.082;2023-08-24T01:55:00;99514.56;;;20.82;48.41
64189;BME280;50493;50.970;10.082;2023-08-24T01:57:26;99510.03;;;20.84;48.44
64189;BME280;50493;50.970;10.082;2023-08-24T01:59:53;99505.09;;;20.78;48.49
64189;BME280;50493;50.970;10.082;2023-08-24T02:02:18;99506.53;;;20.69;48.74
64189;BME280;50493;50.970;10.082;2023-08-24T02:04:43;99505.19;;;20.62;48.84
64189;BME280;50493;50.970;10.082;2023-08-24T02:07:09;99498.84;;;20.65;48.63
64189;BME280;50493;50.970;10.082;2023-08-24T02:09:34;99510.03;;;20.55;48.97
64189;BME280;50493;50.970;10.082;2023-08-24T02:12:00;99510.03;;;20.55;48.81
64189;BME280;50493;50.970;10.082;2023-08-24T02:14:25;99503.78;;;20.57;48.71
64189;BME280;50493;50.970;10.082;2023-08-24T02:16:52;99513.09;;;20.64;48.31
64189;BME280;50493;50.970;10.082;2023-08-24T02:19:17;99508.81;;;20.61;48.44
64189;BME280;50493;50.970;10.082;2023-08-24T02:21:42;99505.47;;;20.58;48.43
64189;BME280;50493;50.970;10.082;2023-08-24T02:24:08;99502.00;;;20.57;48.20
64189;BME280;50493;50.970;10.082;2023-08-24T02:26:33;99499.91;;;20.48;48.57
64189;BME280;50493;50.970;10.082;2023-08-24T02:28:59;99505.09;;;20.35;48.81
64189;BME280;50493;50.970;10.082;2023-08-24T02:31:24;99509.81;;;20.30;49.02
64189;BME280;50493;50.970;10.082;2023-08-24T02:33:51;99508.13;;;20.29;48.92
64189;BME280;50493;50.970;10.082;2023-08-24T02:36:17;99504.88;;;20.24;48.96
64189;BME280;50493;50.970;10.082;2023-08-24T02:38:42;99505.63;;;20.26;48.71
64189;BME280;50493;50.970;10.082;2023-08-24T02:41:08;99498.06;;;20.19;49.00
64189;BME280;50493;50.970;10.082;2023-08-24T02:43:34;99501.94;;;20.14;49.01
64189;BME280;50493;50.970;10.082;2023-08-24T02:46:00;99502.59;;;20.17;48.85
64189;BME280;50493;50.970;10.082;2023-08-24T02:48:26;99496.66;;;20.12;48.85
64189;BME280;50493;50.970;10.082;2023-08-24T02:50:54;99502.16;;;20.09;49.03
64189;BME280;50493;50.970;10.082;2023-08-24T02:53:19;99495.53;;;20.02;49.12
64189;BME280;50493;50.970;10.082;2023-08-24T02:55:44;99493.06;;;19.99;49.09
64189;BME280;50493;50.970;10.082;2023-08-24T02:58:10;99497.94;;;19.91;49.31
64189;BME280;50493;50.970;10.082;2023-08-24T03:00:37;99497.44;;;19.84;49.59
64189;BME280;50493;50.970;10.082;2023-08-24T03:03:03;99500.97;;;19.84;49.06
64189;BME280;50493;50.970;10.082;2023-08-24T03:05:31;99497.19;;;19.88;48.78
64189;BME280;50493;50.970;10.082;2023-08-24T03:07:57;99498.13;;;19.87;49.00
64189;BME280;50493;50.970;10.082;2023-08-24T03:10:23;99502.09;;;19.80;49.22
64189;BME280;50493;50.970;10.082;2023-08-24T03:12:48;99510.28;;;19.76;49.23
64189;BME280;50493;50.970;10.082;2023-08-24T03:15:14;99509.53;;;19.74;49.17
64189;BME280;50493;50.970;10.082;2023-08-24T03:17:40;99500.66;;;19.75;48.96
64189;BME280;50493;50.970;10.082;2023-08-24T03:20:07;99504.69;;;19.66;49.24
64189;BME280;50493;50.970;10.082;2023-08-24T03:22:33;99513.56;;;19.65;49.05
64189;BME280;50493;50.970;10.082;2023-08-24T03:25:00;99509.47;;;19.59;49.36
64189;BME280;50493;50.970;10.082;2023-08-24T03:27:25;99507.09;;;19.54;49.22
64189;BME280;50493;50.970;10.082;2023-08-24T03:29:51;99513.44;;;19.52;49.31
64189;BME280;50493;50.970;10.082;2023-08-24T03:32:17;99507.44;;;19.48;49.09
64189;BME280;50493;50.970;10.082;2023-08-24T03:34:42;99498.56;;;19.49;49.22
64189;BME280;50493;50.970;10.082;2023-08-24T03:37:07;99510.69;;;19.53;49.06
64189;BME280;50493;50.970;10.082;2023-08-24T03:39:33;99513.00;;;19.44;49.41
64189;BME280;50493;50.970;10.082;2023-08-24T03:42:00;99511.91;;;19.48;49.36
64189;BME280;50493;50.970;10.082;2023-08-24T03:44:25;99514.72;;;19.45;49.16
64189;BME280;50493;50.970;10.082;2023-08-24T03:46:50;99512.75;;;19.48;49.04
64189;BME280;50493;50.970;10.082;2023-08-24T03:49:16;99520.03;;;19.45;49.08
64189;BME280;50493;50.970;10.082;2023-08-24T03:51:41;99522.00;;;19.41;48.86
64189;BME280;50493;50.970;10.082;2023-08-24T03:54:06;99520.28;;;19.40;49.16
64189;BME280;50493;50.970;10.082;2023-08-24T03:56:32;99514.38;;;19.35;49.08
64189;BME280;50493;50.970;10.082;2023-08-24T03:58:59;99517.09;;;19.33;49.24
64189;BME280;50493;50.970;10.082;2023-08-24T04:01:24;99519.03;;;19.30;48.92
64189;BME280;50493;50.970;10.082;2023-08-24T04:03:49;99514.09;;;19.24;49.35
64189;BME280;50493;50.970;10.082;2023-08-24T04:06:17;99523.25;;;19.18;49.41
64189;BME280;50493;50.970;10.082;2023-08-24T04:08:44;99525.81;;;19.19;49.20
64189;BME280;50493;50.970;10.082;2023-08-24T04:11:10;99525.53;;;19.24;49.17
64189;BME280;50493;50.970;10.082;2023-08-24T04:13:35;99522.13;;;19.22;48.95
64189;BME280;50493;50.970;10.082;2023-08-24T04:16:02;99519.06;;;19.14;48.99
64189;BME280;50493;50.970;10.082;2023-08-24T04:18:29;99511.44;;;19.08;49.22
64189;BME280;50493;50.970;10.082;2023-08-24T04:20:54;99504.28;;;19.10;49.26
64189;BME280;50493;50.970;10.082;2023-08-24T04:23:23;99506.22;;;19.06;49.21
64189;BME280;50493;50.970;10.082;2023-08-24T04:25:49;99513.03;;;18.94;49.48
64189;BME280;50493;50.970;10.082;2023-08-24T04:28:15;99512.19;;;18.94;49.07
64189;BME280;50493;50.970;10.082;2023-08-24T04:30:40;99519.22;;;18.95;49.34
64189;BME280;50493;50.970;10.082;2023-08-24T04:33:07;99518.16;;;18.97;49.06
64189;BME280;50493;50.970;10.082;2023-08-24T04:35:34;99514.25;;;19.04;48.78
64189;BME280;50493;50.970;10.082;2023-08-24T04:37:59;99514.09;;;19.08;48.65
64189;BME280;50493;50.970;10.082;2023-08-24T04:40:25;99515.81;;;19.09;48.61
64189;BME280;50493;50.970;10.082;2023-08-24T04:42:50;99516.03;;;19.04;48.87
64189;BME280;50493;50.970;10.082;2023-08-24T04:45:16;99508.28;;;19.01;48.51
64189;BME280;50493;50.970;10.082;2023-08-24T04:47:41;99507.34;;;19.02;48.71
64189;BME280;50493;50.970;10.082;2023-08-24T04:50:09;99512.28;;;19.08;48.40
64189;BME280;50493;50.970;10.082;2023-08-24T04:52:34;99515.09;;;19.05;48.12
64189;BME280;50493;50.970;10.082;2023-08-24T04:55:00;99524.94;;;19.03;48.13
64189;BME280;50493;50.970;10.082;2023-08-24T04:57:25;99519.16;;;19.12;47.93
64189;BME280;50493;50.970;10.082;2023-08-24T04:59:51;99512.88;;;19.13;47.86
64189;BME280;50493;50.970;10.082;2023-08-24T05:02:16;99519.72;;;19.17;47.63
64189;BME280;50493;50.970;10.082;2023-08-24T05:04:42;99500.00;;;19.23;48.41
64189;BME280;50493;50.970;10.082;2023-08-24T05:07:09;99483.41;;;19.19;47.49
64189;BME280;50493;50.970;10.082;2023-08-24T05:09:35;99496.31;;;19.26;46.96
64189;BME280;50493;50.970;10.082;2023-08-24T05:12:00;99490.94;;;19.43;46.59
64189;BME280;50493;50.970;10.082;2023-08-24T05:14:25;99481.06;;;19.77;45.79
64189;BME280;50493;50.970;10.082;2023-08-24T05:16:51;99469.63;;;20.36;46.37
64189;BME280;50493;50.970;10.082;2023-08-24T05:19:16;99491.38;;;20.57;45.64
64189;BME280;50493;50.970;10.082;2023-08-24T05:21:42;99498.19;;;20.90;44.43
64189;BME280;50493;50.970;10.082;2023-08-24T05:24:08;99483.81;;;21.07;43.75
64189;BME280;50493;50.970;10.082;2023-08-24T05:26:34;99479.28;;;21.09;44.59
64189;BME280;50493;50.970;10.082;2023-08-24T05:28:59;99477.97;;;20.87;43.95
64189;BME280;50493;50.970;10.082;2023-08-24T05:31:24;99486.81;;;21.30;42.91
64189;BME280;50493;50.970;10.082;2023-08-24T05:33:50;99487.00;;;21.41;42.55
64189;BME280;50493;50.970;10.082;2023-08-24T05:36:15;99495.78;;;20.85;43.87
64189;BME280;50493;50.970;10.082;2023-08-24T05:38:41;99493.91;;;20.59;44.22
64189;BME280;50493;50.970;10.082;2023-08-24T05:41:13;99496.75;;;20.41;44.72
64189;BME280;50493;50.970;10.082;2023-08-24T05:43:39;99501.47;;;20.21;45.09
64189;BME280;50493;50.970;10.082;2023-08-24T05:46:04;99510.19;;;20.24;45.21
64189;BME280;50493;50.970;10.082;2023-08-24T05:48:30;99506.72;;;20.07;45.57
64189;BME280;50493;50.970;10.082;2023-08-24T05:50:55;99508.94;;;20.15;45.32
64189;BME280;50493;50.970;10.082;2023-08-24T05:53:21;99518.25;;;20.36;44.82
64189;BME280;50493;50.970;10.082;2023-08-24T05:55:46;99499.31;;;20.71;44.09
64189;BME280;50493;50.970;10.082;2023-08-24T05:58:13;99516.50;;;21.36;48.71
64189;BME280;50493;50.970;10.082;2023-08-24T06:00:38;99517.03;;;20.57;45.41
64189;BME280;50493;50.970;10.082;2023-08-24T06:03:04;99524.75;;;20.61;45.70
64189;BME280;50493;50.970;10.082;2023-08-24T06:05:29;99522.06;;;20.76;50.04
64189;BME280;50493;50.970;10.082;2023-08-24T06:07:55;99525.97;;;20.84;47.19
64189;BME280;50493;50.970;10.082;2023-08-24T06:10:20;99527.47;;;21.17;46.69
64189;BME280;50493;50.970;10.082;2023-08-24T06:12:46;99526.38;;;20.93;48.24
64189;BME280;50493;50.970;10.082;2023-08-24T06:15:13;99527.09;;;20.37;52.65
64189;BME280;50493;50.970;10.082;2023-08-24T06:17:38;99525.19;;;19.14;56.63
64189;BME280;50493;50.970;10.082;2023-08-24T06:20:05;99516.31;;;19.15;50.86
64189;BME280;50493;50.970;10.082;2023-08-24T06:22:30;99521.63;;;19.47;55.29
64189;BME280;50493;50.970;10.082;2023-08-24T06:24:56;99524.97;;;19.67;55.18
64189;BME280;50493;50.970;10.082;2023-08-24T06:27:25;99525.19;;;19.78;49.04
64189;BME280;50493;50.970;10.082;2023-08-24T06:29:50;99512.88;;;19.77;55.25
64189;BME280;50493;50.970;10.082;2023-08-24T06:32:17;99514.84;;;19.74;55.40
64189;BME280;50493;50.970;10.082;2023-08-24T06:34:42;99511.63;;;19.36;57.14
64189;BME280;50493;50.970;10.082;2023-08-24T06:37:07;99498.88;;;18.95;58.65
64189;BME280;50493;50.970;10.082;2023-08-24T06:39:33;99495.13;;;18.99;57.65
64189;BME280;50493;50.970;10.082;2023-08-24T06:41:58;99499.91;;;19.25;50.06
64189;BME280;50493;50.970;10.082;2023-08-24T06:44:24;99507.72;;;19.90;53.96
64189;BME280;50493;50.970;10.082;2023-08-24T06:46:49;99520.88;;;19.92;55.21
64189;BME280;50493;50.970;10.082;2023-08-24T06:49:16;99501.44;;;19.29;58.34
64189;BME280;50493;50.970;10.082;2023-08-24T06:51:41;99499.41;;;19.18;51.54
64189;BME280;50493;50.970;10.082;2023-08-24T06:54:07;99496.19;;;18.79;54.46
64189;BME280;50493;50.970;10.082;2023-08-24T06:56:32;99487.78;;;19.20;54.01
64189;BME280;50493;50.970;10.082;2023-08-24T06:58:58;99482.47;;;19.52;48.03
64189;BME280;50493;50.970;10.082;2023-08-24T07:01:23;99479.59;;;20.02;48.17
64189;BME280;50493;50.970;10.082;2023-08-24T07:03:50;99483.09;;;21.05;52.48
64189;BME280;50493;50.970;10.082;2023-08-24T07:06:17;99491.06;;;20.76;44.95
64189;BME280;50493;50.970;10.082;2023-08-24T07:08:43;99494.63;;;20.17;46.83
64189;BME280;50493;50.970;10.082;2023-08-24T07:11:08;99498.72;;;21.10;53.18
64189;BME280;50493;50.970;10.082;2023-08-24T07:13:33;99496.56;;;21.02;53.77
64189;BME280;50493;50.970;10.082;2023-08-24T07:16:00;99492.69;;;20.35;56.82
64189;BME280;50493;50.970;10.082;2023-08-24T07:18:25;99488.59;;;19.99;58.29
64189;BME280;50493;50.970;10.082;2023-08-24T07:20:51;99486.31;;;20.52;55.35
64189;BME280;50493;50.970;10.082;2023-08-24T07:23:17;99494.63;;;19.41;59.88
64189;BME280;50493;50.970;10.082;2023-08-24T07:25:43;99492.38;;;19.01;61.09
64189;BME280;50493;50.970;10.082;2023-08-24T07:28:08;99490.28;;;19.70;56.09
64189;BME280;50493;50.970;10.082;2023-08-24T07:30:35;99484.72;;;20.05;59.45
64189;BME280;50493;50.970;10.082;2023-08-24T07:33:01;99486.72;;;20.46;57.01
64189;BME280;50493;50.970;10.082;2023-08-24T07:35:28;99484.34;;;20.56;56.82
64189;BME280;50493;50.970;10.082;2023-08-24T07:37:53;99475.69;;;20.38;57.60
64189;BME280;50493;50.970;10.082;2023-08-24T07:40:20;99478.56;;;20.49;56.14
64189;BME280;50493;50.970;10.082;2023-08-24T07:42:47;99486.63;;;20.03;58.09
64189;BME280;50493;50.970;10.082;2023-08-24T07:45:13;99474.28;;;20.02;49.45
64189;BME280;50493;50.970;10.082;2023-08-24T07:47:39;99467.72;;;20.38;58.15
64189;BME280;50493;50.970;10.082;2023-08-24T07:50:05;99461.63;;;20.07;58.17
64189;BME280;50493;50.970;10.082;2023-08-24T07:52:32;99462.03;;;20.30;57.58
64189;BME280;50493;50.970;10.082;2023-08-24T07:54:57;99460.34;;;20.29;57.30
64189;BME280;50493;50.970;10.082;2023-08-24T07:57:27;99450.56;;;20.29;47.91
64189;BME280;50493;50.970;10.082;2023-08-24T07:59:52;99451.44;;;20.59;56.94
64189;BME280;50493;50.970;10.082;2023-08-24T08:02:17;99447.81;;;20.31;57.31
64189;BME280;50493;50.970;10.082;2023-08-24T08:04:43;99443.66;;;20.41;56.94
64189;BME280;50493;50.970;10.082;2023-08-24T08:07:08;99441.66;;;20.59;56.65
64189;BME280;50493;50.970;10.082;2023-08-24T08:09:35;99435.41;;;20.31;56.12
64189;BME280;50493;50.970;10.082;2023-08-24T08:12:01;99432.22;;;20.10;58.89
64189;BME280;50493;50.970;10.082;2023-08-24T08:14:28;99430.31;;;20.12;49.00
64189;BME280;50493;50.970;10.082;2023-08-24T08:16:53;99424.63;;;20.04;47.43
64189;BME280;50493;50.970;10.082;2023-08-24T08:19:18;99417.94;;;20.42;46.88
64189;BME280;50493;50.970;10.082;2023-08-24T08:21:45;99409.47;;;20.78;46.11
64189;BME280;50493;50.970;10.082;2023-08-24T08:24:10;99413.28;;;20.74;45.52
64189;BME280;50493;50.970;10.082;2023-08-24T08:26:36;99398.91;;;21.33;46.95
64189;BME280;50493;50.970;10.082;2023-08-24T08:29:01;99399.97;;;21.43;45.37
64189;BME280;50493;50.970;10.082;2023-08-24T08:31:28;99399.34;;;21.12;44.40
64189;BME280;50493;50.970;10.082;2023-08-24T08:33:53;99397.69;;;20.97;44.73
64189;BME280;50493;50.970;10.082;2023-08-24T08:36:19;99391.25;;;21.41;44.09
64189;BME280;50493;50.970;10.082;2023-08-24T08:38:44;99392.16;;;21.54;43.53
64189;BME280;50493;50.970;10.082;2023-08-24T08:41:10;99379.66;;;21.82;46.78
64189;BME280;50493;50.970;10.082;2023-08-24T08:43:38;99386.69;;;22.09;51.75
64189;BME280;50493;50.970;10.082;2023-08-24T08:46:03;99378.16;;;22.17;43.67
64189;BME280;50493;50.970;10.082;2023-08-24T08:48:31;99371.00;;;21.79;47.29
64189;BME280;50493;50.970;10.082;2023-08-24T08:50:57;99365.38;;;21.96;52.78
64189;BME280;50493;50.970;10.082;2023-08-24T08:53:23;99355.16;;;21.77;43.75
64189;BME280;50493;50.970;10.082;2023-08-24T08:55:51;99348.31;;;22.25;52.15
64189;BME280;50493;50.970;10.082;2023-08-24T08:58:17;99348.56;;;21.96;43.65
64189;BME280;50493;50.970;10.082;2023-08-24T09:00:44;99345.31;;;22.42;45.22
64189;BME280;50493;50.970;10.082;2023-08-24T09:03:11;99338.31;;;22.41;42.29
64189;BME280;50493;50.970;10.082;2023-08-24T09:05:39;99336.53;;;22.66;41.87
64189;BME280;50493;50.970;10.082;2023-08-24T09:08:05;99335.97;;;22.98;40.77
64189;BME280;50493;50.970;10.082;2023-08-24T09:10:31;99332.31;;;22.50;52.92
64189;BME280;50493;50.970;10.082;2023-08-24T09:12:57;99325.91;;;23.14;41.07
64189;BME280;50493;50.970;10.082;2023-08-24T09:15:25;99316.25;;;24.05;47.52
64189;BME280;50493;50.970;10.082;2023-08-24T09:17:51;99318.03;;;23.71;39.68
64189;BME280;50493;50.970;10.082;2023-08-24T09:20:17;99324.13;;;24.07;47.13
64189;BME280;50493;50.970;10.082;2023-08-24T09:22:44;99321.06;;;25.12;44.05
64189;BME280;50493;50.970;10.082;2023-08-24T09:25:10;99310.00;;;24.73;38.12
64189;BME280;50493;50.970;10.082;2023-08-24T09:27:36;99308.31;;;24.61;38.37
64189;BME280;50493;50.970;10.082;2023-08-24T09:30:01;99304.91;;;23.68;40.39
64189;BME280;50493;50.970;10.082;2023-08-24T09:32:28;99296.06;;;24.58;42.05
64189;BME280;50493;50.970;10.082;2023-08-24T09:34:54;99293.53;;;25.21;43.78
64189;BME280;50493;50.970;10.082;2023-08-24T09:37:19;99297.91;;;25.65;45.36
64189;BME280;50493;50.970;10.082;2023-08-24T09:39:47;99297.31;;;25.82;43.21
64189;BME280;50493;50.970;10.082;2023-08-24T09:42:13;99296.66;;;25.48;44.74
64189;BME280;50493;50.970;10.082;2023-08-24T09:44:43;99290.00;;;25.42;47.19
64189;BME280;50493;50.970;10.082;2023-08-24T09:47:09;99277.72;;;24.53;47.56
64189;BME280;50493;50.970;10.082;2023-08-24T09:49:36;99272.50;;;24.63;44.14
64189;BME280;50493;50.970;10.082;2023-08-24T09:52:03;99270.72;;;25.17;46.30
64189;BME280;50493;50.970;10.082;2023-08-24T09:54:34;99260.31;;;25.45;41.67
64189;BME280;50493;50.970;10.082;2023-08-24T09:57:04;99261.06;;;25.05;38.88
64189;BME280;50493;50.970;10.082;2023-08-24T09:59:32;99255.59;;;24.63;39.68
64189;BME280;50493;50.970;10.082;2023-08-24T10:02:00;99254.50;;;25.40;45.92
64189;BME280;50493;50.970;10.082;2023-08-24T10:04:29;99245.78;;;26.00;38.61
64189;BME280;50493;50.970;10.082;2023-08-24T10:06:57;99239.41;;;26.32;42.34
64189;BME280;50493;50.970;10.082;2023-08-24T10:09:25;99239.16;;;26.54;44.68
64189;BME280;50493;50.970;10.082;2023-08-24T10:11:54;99232.97;;;26.13;38.49
64189;BME280;50493;50.970;10.082;2023-08-24T10:14:24;99228.72;;;27.10;39.60
64189;BME280;50493;50.970;10.082;2023-08-24T10:16:51;99225.13;;;27.49;40.65
64189;BME280;50493;50.970;10.082;2023-08-24T10:19:18;99221.78;;;27.07;42.46
64189;BME280;50493;50.970;10.082;2023-08-24T10:21:44;99217.28;;;27.65;43.01
64189;BME280;50493;50.970;10.082;2023-08-24T10:24:11;99211.31;;;27.99;40.89
64189;BME280;50493;50.970;10.082;2023-08-24T10:26:39;99197.75;;;27.73;43.65
64189;BME280;50493;50.970;10.082;2023-08-24T10:29:06;99197.97;;;28.35;41.03
64189;BME280;50493;50.970;10.082;2023-08-24T10:31:33;99194.81;;;28.22;42.11
64189;BME280;50493;50.970;10.082;2023-08-24T10:34:00;99198.84;;;28.72;41.57
64189;BME280;50493;50.970;10.082;2023-08-24T10:36:27;99203.50;;;28.70;39.93
64189;BME280;50493;50.970;10.082;2023-08-24T10:38:55;99205.66;;;28.84;39.24
64189;BME280;50493;50.970;10.082;2023-08-24T10:41:26;99199.13;;;28.33;38.53
64189;BME280;50493;50.970;10.082;2023-08-24T10:43:51;99198.22;;;27.86;38.70
64189;BME280;50493;50.970;10.082;2023-08-24T10:46:17;99193.56;;;28.88;39.39
64189;BME280;50493;50.970;10.082;2023-08-24T10:48:59;99200.13;;;29.12;38.75
64189;BME280;50493;50.970;10.082;2023-08-24T10:51:25;99196.06;;;29.08;36.57
64189;BME280;50493;50.970;10.082;2023-08-24T10:53:56;99191.56;;;28.18;37.73
64189;BME280;50493;50.970;10.082;2023-08-24T10:56:30;99187.59;;;29.21;39.92
64189;BME280;50493;50.970;10.082;2023-08-24T10:59:09;99174.81;;;29.49;37.46
64189;BME280;50493;50.970;10.082;2023-08-24T11:01:38;99167.69;;;29.74;34.27
64189;BME280;50493;50.970;10.082;2023-08-24T11:04:05;99179.97;;;29.77;36.33
64189;BME280;50493;50.970;10.082;2023-08-24T11:06:33;99169.38;;;28.88;35.93
64189;BME280;50493;50.970;10.082;2023-08-24T11:09:06;99166.69;;;27.70;37.98
64189;BME280;50493;50.970;10.082;2023-08-24T11:11:41;99161.97;;;27.35;37.47
64189;BME280;50493;50.970;10.082;2023-08-24T11:14:13;99163.28;;;27.96;36.42
64189;BME280;50493;50.970;10.082;2023-08-24T11:16:41;99162.97;;;28.27;36.21
64189;BME280;50493;50.970;10.082;2023-08-24T11:19:08;99175.13;;;28.57;37.47
64189;BME280;50493;50.970;10.082;2023-08-24T11:21:34;99177.22;;;28.82;37.24
64189;BME280;50493;50.970;10.082;2023-08-24T11:23:59;99180.81;;;28.18;34.87
64189;BME280;50493;50.970;10.082;2023-08-24T11:26:25;99169.75;;;28.94;32.59
64189;BME280;50493;50.970;10.082;2023-08-24T11:28:52;99173.94;;;29.49;35.64
64189;BME280;50493;50.970;10.082;2023-08-24T11:31:18;99183.66;;;29.68;34.15
64189;BME280;50493;50.970;10.082;2023-08-24T11:33:44;99183.00;;;29.74;32.67
64189;BME280;50493;50.970;10.082;2023-08-24T11:36:10;99187.91;;;29.44;33.26
64189;BME280;50493;50.970;10.082;2023-08-24T11:38:37;99186.06;;;29.79;34.50
64189;BME280;50493;50.970;10.082;2023-08-24T11:41:10;99179.31;;;29.75;32.07
64189;BME280;50493;50.970;10.082;2023-08-24T11:43:36;99177.75;;;29.38;34.59
64189;BME280;50493;50.970;10.082;2023-08-24T11:46:01;99171.38;;;29.13;36.49
64189;BME280;50493;50.970;10.082;2023-08-24T11:48:27;99170.72;;;29.37;35.19
64189;BME280;50493;50.970;10.082;2023-08-24T11:50:54;99168.22;;;29.78;34.57
64189;BME280;50493;50.970;10.082;2023-08-24T11:53:21;99164.38;;;29.89;34.73
64189;BME280;50493;50.970;10.082;2023-08-24T11:55:48;99157.59;;;30.44;33.85
64189;BME280;50493;50.970;10.082;2023-08-24T11:58:14;99155.91;;;30.27;34.03
64189;BME280;50493;50.970;10.082;2023-08-24T12:00:40;99154.88;;;30.69;36.11
64189;BME280;50493;50.970;10.082;2023-08-24T12:03:06;99146.72;;;31.27;32.91
64189;BME280;50493;50.970;10.082;2023-08-24T12:05:31;99145.06;;;30.10;34.15
64189;BME280;50493;50.970;10.082;2023-08-24T12:07:57;99141.41;;;30.61;32.75
64189;BME280;50493;50.970;10.082;2023-08-24T12:10:24;99134.50;;;30.99;32.09
64189;BME280;50493;50.970;10.082;2023-08-24T12:12:49;99135.19;;;30.68;29.34
64189;BME280;50493;50.970;10.082;2023-08-24T12:15:16;99129.88;;;30.01;34.30
64189;BME280;50493;50.970;10.082;2023-08-24T12:17:42;99129.53;;;29.96;32.55
64189;BME280;50493;50.970;10.082;2023-08-24T12:20:17;99118.84;;;29.27;34.82
64189;BME280;50493;50.970;10.082;2023-08-24T12:22:42;99114.69;;;29.75;35.12
64189;BME280;50493;50.970;10.082;2023-08-24T12:25:08;99096.25;;;30.63;32.87
64189;BME280;50493;50.970;10.082;2023-08-24T12:27:35;99095.38;;;30.62;34.35
64189;BME280;50493;50.970;10.082;2023-08-24T12:30:01;99086.44;;;30.20;30.39
64189;BME280;50493;50.970;10.082;2023-08-24T12:32:42;99094.00;;;29.41;34.06
64189;BME280;50493;50.970;10.082;2023-08-24T12:35:08;99076.44;;;29.71;35.17
64189;BME280;50493;50.970;10.082;2023-08-24T12:37:35;99083.44;;;30.23;35.65
64189;BME280;50493;50.970;10.082;2023-08-24T12:40:01;99090.84;;;30.71;33.11
64189;BME280;50493;50.970;10.082;2023-08-24T12:42:26;99084.31;;;31.21;32.38
64189;BME280;50493;50.970;10.082;2023-08-24T12:44:53;99079.56;;;31.95;29.28
64189;BME280;50493;50.970;10.082;2023-08-24T12:47:20;99084.38;;;31.84;32.42